Keystone Airpark, Keystone He, FL

10:43 PM EDT on September 25, 2017 (GMT -0400)
Keystone Airpark, Keystone He

Weather History for K42J - January, 2014

Change the Weather History Date:

Monday, January 6, 2014

  Actual Average (KGNV) Record (KGNV)
Temperature  
Mean Temperature 50 °F -  
Max Temperature 64 °F 69 °F 85 °F (1936)
Min Temperature 35 °F 44 °F 19 °F (1999)
Degree Days  
Heating Degree Days 16    
Moisture  
Dew Point 44 °F    
Average Humidity 76    
Maximum Humidity 100    
Minimum Humidity 36    
Precipitation  
Precipitation 0.00 in - - ()
Sea Level Pressure  
Sea Level Pressure 30.09 in    
Wind  
Wind Speed 9 mph (West)    
Max Wind Speed 20 mph    
Max Gust Speed 26 mph    
Visibility 9 miles    
Events      
Averages and records for this station are not official NWS values.
T = Trace of Precipitation, MM = Missing Value Source: NWS Daily Summary

Daily Weather History Graph

Daily Weather History Graph

Search for Another Location

Airport or City:

Trip Planner

Search our weather history database for the weather conditions in past years. The results will help you decide how hot, cold, wet, or windy it might be!

Date:

Astronomy

Jan. 06, 2014 Rise Set
Actual Time 7:24 AM EST 5:43 PM EST
Civil Twilight 6:58 AM EST 6:09 PM EST
Nautical Twilight 6:28 AM EST 6:39 PM EST
Astronomical Twilight 5:59 AM EST 7:08 PM EST
Moon 11:07 AM EST (1/6) 11:45 PM EST (1/6)
Length of Visible Light 11h 11m
Length of Day
10h 19m
Waxing Crescent, 34% of the Moon is Illuminated
Jan 6
Waxing Crescent
Jan 7
First Quarter
Jan 15
Full
Jan 24
Last Quarter
Jan 30
New

Hourly Weather History & Observations

Time (EST) Temp. Windchill Dew Point Humidity Pressure Visibility Wind Dir Wind Speed Gust Speed Precip Events Conditions
12:15 AM 62.6 °F - 62.6 °F 100% 29.95 in 5.0 mi South 5.8 mph - N/A   Overcast
12:35 AM 62.6 °F - 62.6 °F 100% 29.95 in 6.0 mi SSW 5.8 mph - N/A   Overcast
12:55 AM 62.6 °F - 62.6 °F 100% 29.95 in 9.0 mi SW 4.6 mph - N/A   Overcast
1:15 AM 62.6 °F - 62.6 °F 100% 29.94 in 9.0 mi SSW 6.9 mph - N/A   Scattered Clouds
1:35 AM 62.6 °F - 60.8 °F 94% 29.94 in 9.0 mi SSW 5.8 mph - N/A   Clear
1:55 AM 62.6 °F - 60.8 °F 94% 29.94 in 9.0 mi SSW 6.9 mph - N/A   Scattered Clouds
2:15 AM 62.6 °F - 60.8 °F 94% 29.94 in 10.0 mi SW 4.6 mph - N/A   Mostly Cloudy
2:35 AM 62.6 °F - 60.8 °F 94% 29.93 in 10.0 mi SSW 6.9 mph - N/A   Partly Cloudy
2:55 AM 62.6 °F - 60.8 °F 94% 29.93 in 10.0 mi SW 6.9 mph - N/A   Clear
3:15 AM 62.6 °F - 60.8 °F 94% 29.93 in 10.0 mi SW 8.1 mph - N/A   Partly Cloudy
3:35 AM 60.8 °F - 60.8 °F 100% 29.93 in 10.0 mi WSW 6.9 mph - N/A   Scattered Clouds
3:55 AM 60.8 °F - 60.8 °F 100% 29.93 in 9.0 mi WSW 5.8 mph - N/A   Mostly Cloudy
4:15 AM 60.8 °F - 59.0 °F 94% 29.92 in 8.0 mi SW 4.6 mph - N/A   Mostly Cloudy
4:35 AM 60.8 °F - 60.8 °F 100% 29.91 in 8.0 mi SW 4.6 mph - N/A   Overcast
4:55 AM 60.8 °F - 60.8 °F 100% 29.91 in 8.0 mi SW 5.8 mph - N/A   Overcast
5:15 AM 60.8 °F - 60.8 °F 100% 29.91 in 8.0 mi WSW 6.9 mph - N/A   Overcast
5:35 AM 62.6 °F - 62.6 °F 100% 29.91 in 8.0 mi SW 6.9 mph - N/A   Overcast
5:55 AM 62.6 °F - 62.6 °F 100% 29.92 in 3.0 mi SW 9.2 mph - N/A   Overcast
6:15 AM 62.6 °F - 62.6 °F 100% 29.92 in 0.5 mi SW 9.2 mph - N/A   Overcast
6:35 AM 62.6 °F - 62.6 °F 100% 29.92 in 2.5 mi SW 9.2 mph - N/A   Overcast
6:55 AM 62.6 °F - 62.6 °F 100% 29.93 in 6.0 mi SW 10.4 mph - N/A   Overcast
7:15 AM 62.6 °F - 62.6 °F 100% 29.92 in 7.0 mi SSW 8.1 mph - N/A   Overcast
7:35 AM 64.4 °F - 64.4 °F 100% 29.93 in 5.0 mi SSW 6.9 mph - N/A   Overcast
7:55 AM 64.4 °F - 64.4 °F 100% 29.94 in 6.0 mi SW 11.5 mph - N/A   Overcast
8:15 AM 64.4 °F - 64.4 °F 100% 29.95 in 6.0 mi SSW 10.4 mph - N/A   Mostly Cloudy
8:35 AM 64.4 °F - 64.4 °F 100% 29.96 in 5.0 mi SSW 9.2 mph - N/A   Mostly Cloudy
8:55 AM 64.4 °F - 64.4 °F 100% 29.96 in 7.0 mi SSW 9.2 mph - N/A   Scattered Clouds
9:15 AM 64.4 °F - 64.4 °F 100% 29.98 in 0.8 mi SW 8.1 mph - N/A   Overcast
9:35 AM 64.4 °F - 64.4 °F 100% 29.99 in 4.0 mi WSW 12.7 mph - N/A   Overcast
9:55 AM 57.2 °F - 55.4 °F 94% 30.02 in 3.0 mi NW 13.8 mph 18.4 mph N/A   Overcast
10:15 AM 55.4 °F - 53.6 °F 94% 30.03 in 8.0 mi WNW 16.1 mph 19.6 mph N/A   Overcast
10:35 AM 53.6 °F - 53.6 °F 100% 30.04 in 10.0 mi WNW 15.0 mph - N/A   Overcast
10:55 AM 53.6 °F - 51.8 °F 94% 30.06 in 10.0 mi WNW 16.1 mph 23.0 mph N/A   Overcast
11:15 AM 53.6 °F - 51.8 °F 94% 30.06 in 10.0 mi WNW 13.8 mph 18.4 mph N/A   Overcast
11:35 AM 51.8 °F - 51.8 °F 100% 30.07 in 7.0 mi NW 17.3 mph 23.0 mph N/A   Overcast
11:55 AM 48.2 °F - 46.4 °F 93% 30.07 in 10.0 mi NW 15.0 mph 20.7 mph N/A   Overcast
12:15 PM 50.0 °F - 44.6 °F 82% 30.08 in 10.0 mi NW 18.4 mph - N/A   Overcast
12:35 PM 48.2 °F - 42.8 °F 82% 30.08 in 10.0 mi NW 18.4 mph 26.5 mph N/A   Mostly Cloudy
12:55 PM 50.0 °F - 42.8 °F 76% 30.07 in 10.0 mi NW 19.6 mph 24.2 mph N/A   Mostly Cloudy
1:15 PM 50.0 °F - 39.2 °F 66% 30.08 in 10.0 mi NW 15.0 mph - N/A   Mostly Cloudy
1:35 PM 51.8 °F - 39.2 °F 62% 30.09 in 10.0 mi NW 18.4 mph 25.3 mph N/A   Scattered Clouds
1:55 PM 48.2 °F - 37.4 °F 66% 30.11 in 10.0 mi NW 17.3 mph 23.0 mph N/A   Partly Cloudy
2:15 PM 48.2 °F - 37.4 °F 66% 30.11 in 10.0 mi NW 18.4 mph 21.9 mph N/A   Mostly Cloudy
2:35 PM 48.2 °F - 35.6 °F 62% 30.12 in 10.0 mi NW 16.1 mph - N/A   Mostly Cloudy
2:55 PM 46.4 °F 40.7 °F 35.6 °F 66% 30.13 in 10.0 mi NW 12.7 mph - N/A   Mostly Cloudy
3:15 PM 46.4 °F 40.4 °F 32.0 °F 57% 30.13 in 10.0 mi NW 13.8 mph - N/A   Scattered Clouds
3:35 PM 46.4 °F 39.2 °F 30.2 °F 53% 30.14 in 10.0 mi NW 18.4 mph 23.0 mph N/A   Scattered Clouds
3:55 PM 46.4 °F 39.8 °F 28.4 °F 50% 30.15 in 10.0 mi NW 16.1 mph - N/A   Partly Cloudy
4:15 PM 46.4 °F 40.4 °F 28.4 °F 50% 30.16 in 10.0 mi NW 13.8 mph - N/A   Clear
4:35 PM 46.4 °F 41.1 °F 26.6 °F 46% 30.17 in 10.0 mi NW 11.5 mph 20.7 mph N/A   Clear
4:55 PM 46.4 °F 39.0 °F 26.6 °F 46% 30.17 in 10.0 mi WNW 19.6 mph - N/A   Clear
5:15 PM 44.6 °F 38.1 °F 23.0 °F 43% 30.19 in 10.0 mi NW 13.8 mph - N/A   Clear
5:35 PM 44.6 °F 39.2 °F 24.8 °F 46% 30.19 in 10.0 mi NW 10.4 mph - N/A   Clear
5:55 PM 42.8 °F 35.1 °F 23.0 °F 46% 30.21 in 10.0 mi WNW 16.1 mph - N/A   Clear
6:15 PM 42.8 °F 37.0 °F 21.2 °F 42% 30.21 in 10.0 mi NW 10.4 mph - N/A   Clear
6:35 PM 39.2 °F 34.2 °F 24.8 °F 56% 30.23 in 10.0 mi NW 6.9 mph - N/A   Clear
6:55 PM 39.2 °F 32.5 °F 24.8 °F 56% 30.24 in 10.0 mi WNW 10.4 mph - N/A   Clear
7:15 PM 39.2 °F 33.6 °F 23.0 °F 52% 30.26 in 10.0 mi WNW 8.1 mph - N/A   Clear
7:35 PM 39.2 °F 34.2 °F 24.8 °F 56% 30.26 in 10.0 mi WNW 6.9 mph - N/A   Clear
7:55 PM 39.2 °F 33.6 °F 26.6 °F 61% 30.27 in 10.0 mi WNW 8.1 mph - N/A   Clear
8:15 PM 39.2 °F 33.6 °F 24.8 °F 56% 30.28 in 10.0 mi WNW 8.1 mph - N/A   Clear
8:35 PM 39.2 °F 32.0 °F 23.0 °F 52% 30.28 in 10.0 mi NW 11.5 mph 19.6 mph N/A   Clear
8:55 PM 39.2 °F 32.5 °F 21.2 °F 49% 30.30 in 10.0 mi NW 10.4 mph 17.3 mph N/A   Clear
9:15 PM 39.2 °F 32.5 °F 21.2 °F 49% 30.31 in 10.0 mi NW 10.4 mph - N/A   Clear
9:35 PM 39.2 °F 30.8 °F 21.2 °F 49% 30.32 in 10.0 mi NW 15.0 mph - N/A   Clear
9:55 PM 37.4 °F 29.8 °F 21.2 °F 52% 30.33 in 10.0 mi NW 11.5 mph - N/A   Clear
10:15 PM 37.4 °F 32.1 °F 21.2 °F 52% 30.34 in 10.0 mi NNW 6.9 mph - N/A   Clear
10:35 PM 37.4 °F 30.8 °F 23.0 °F 56% 30.35 in 10.0 mi NW 9.2 mph - N/A   Clear
10:55 PM 37.4 °F 29.8 °F 14.0 °F 38% 30.36 in 10.0 mi NW 11.5 mph - N/A   Clear
11:15 PM 37.4 °F 29.3 °F 12.2 °F 36% 30.36 in 10.0 mi NNW 12.7 mph 19.6 mph N/A   Clear
11:35 PM 35.6 °F 27.1 °F 14.0 °F 41% 30.38 in 10.0 mi NW 12.7 mph 17.3 mph N/A   Clear
11:55 PM 35.6 °F 26.6 °F 12.2 °F 38% 30.37 in 10.0 mi NW 13.8 mph - N/A   Clear